Terminal Aerodrome Forecast
Issued by NWS

Current Version | Previous Version | Text Only | Print | Product List | Glossary On
Versions: 1 2 3 4 5 6 7 8 9 10 11 12 13 14 15 16 17 18 19 20 21 22 23 24
375
FTUS41 KPHI 261754
TAFMIV
TAF
KMIV 261754Z 2618/2718 31008KT P6SM FEW050 BKN250
     FM270000 VRB02KT P6SM SCT250
      TEMPO 2708/2711 3SM BR
     FM271300 04004KT P6SM FEW050 BKN200
     FM271700 36006KT P6SM SCT060 BKN120=

USA.gov is the U.S. government's official web portal to all federal, state and local government web resources and services.